Latest Weather Observations for Delamere

IDD60801

Issued at 12:31 pm CST Tuesday 28 February 2017 (issued every 30 minutes, with the page automatically refreshed every 10 minutes)

About weather observations | Map of weather stations | Latest weather observations for NT | Other Formats
Station Details ID: 014949 Name: DELAMERE WEAPONS RANGE Lat: -15.74 Lon: 131.92 Height: 221.0 m
Data from the previous 72 hours. | See also: Recent months at Delamere
Date/Time
CST
Temp
°C
App
Temp
°C
Dew
Point
°C
Rel
Hum
%
Delta-T
°C
Wind Press
QNH
hPa
Press
MSL
hPa
Rain since
9am
mm
Dir  Spd
km/h
Gust
km/h
Spd
kts
Gust
kts
28/12:30pm 33.4 34.5 21.2 48 8.3 E 17 22 9 12 1009.0 - 0.0
28/12:00pm 32.6 33.6 21.1 50 7.8 ENE 17 30 9 16 1009.4 1007.8 0.0
28/11:30am 31.6 31.8 20.2 50 7.6 ENE 19 26 10 14 1010.0 - 0.0
28/11:00am 31.2 31.6 19.9 51 7.5 ENE 17 26 9 14 1010.2 - 0.0
28/10:30am 30.9 31.7 21.4 57 6.4 ENE 19 28 10 15 1010.3 - 0.0
28/10:00am 29.9 31.0 21.3 60 5.8 NNE 17 22 9 12 1010.5 - 0.0
28/09:30am 29.2 31.0 21.9 64 5.0 NE 15 22 8 12 1010.6 - 0.0
28/09:00am 28.2 30.1 22.0 69 4.2 ENE 15 20 8 11 1010.7 1009.0 0.0
28/08:30am 27.0 29.5 22.4 76 3.1 NE 13 17 7 9 1010.6 - 0.0
28/08:00am 25.6 28.7 22.1 81 2.4 ENE 9 15 5 8 1010.3 - 0.0
28/07:30am 25.2 30.2 22.5 85 1.8 CALM 0 0 0 0 1010.1 - 0.0
28/07:00am 23.3 28.2 22.3 94 0.7 CALM 0 0 0 0 1009.9 - 0.0
28/06:30am 23.1 27.7 21.7 92 0.9 CALM 0 0 0 0 1009.5 - 0.0
28/06:00am 23.7 27.2 21.8 89 1.3 NNE 6 7 3 4 1009.2 1007.6 0.0
28/05:30am 24.0 27.3 21.9 88 1.4 NE 7 11 4 6 1009.1 - 0.0
28/05:00am 24.2 27.4 21.7 86 1.7 NNE 7 9 4 5 1008.8 - 0.0
28/04:30am 24.4 27.6 21.7 85 1.8 NE 7 7 4 4 1008.9 - 0.0
28/04:00am 24.7 28.0 21.8 84 1.9 NE 7 7 4 4 1008.9 - 0.0
28/03:30am 24.9 28.2 21.8 83 2.1 NNE 7 9 4 5 1009.0 - 0.0
28/03:00am 25.0 28.2 21.7 82 2.2 NE 7 9 4 5 1009.0 1007.4 0.0
28/02:30am 25.1 28.4 21.8 82 2.2 NE 7 9 4 5 1009.1 - 0.0
28/02:00am 25.5 28.7 21.6 79 2.6 ENE 7 9 4 5 1009.4 - 0.0
28/01:30am 25.8 29.0 21.7 78 2.8 NE 7 9 4 5 1009.8 - 0.0
28/01:00am 26.0 29.1 21.4 76 3.1 ENE 7 9 4 5 1010.0 - 0.0
28/12:30am 26.7 28.8 21.0 71 3.8 ENE 11 15 6 8 1010.2 - 0.0
28/12:00am 26.7 29.5 21.5 73 3.5 E 9 13 5 7 1010.2 1008.5 0.0
 
Date/Time
CST
Temp
°C
App
Temp
°C
Dew
Point
°C
Rel
Hum
%
Delta-T
°C
Wind Press
QNH
hPa
Press
MSL
hPa
Rain since
9am
mm
Dir  Spd
km/h
Gust
km/h
Spd
kts
Gust
kts
27/11:30pm 26.5 30.1 22.3 78 2.8 SE 7 11 4 6 1010.3 - 0.0
27/11:00pm 26.6 31.3 23.9 85 1.9 E 6 6 3 3 1010.2 - 0.0
27/10:30pm 27.3 31.4 22.9 77 3.0 E 6 7 3 4 1010.1 - 0.0
27/10:00pm 27.3 31.3 22.7 76 3.1 ENE 6 7 3 4 1009.8 - 0.0
27/09:30pm 27.6 31.7 23.0 76 3.2 NE 6 6 3 3 1009.5 - 0.0
27/09:00pm 27.9 31.5 22.1 70 3.9 E 6 7 3 4 1009.1 1007.5 0.0
27/08:30pm 28.5 32.7 23.2 73 3.7 E 6 7 3 4 1008.9 - 0.0
27/08:00pm 29.1 34.4 24.4 76 3.3 ESE 4 6 2 3 1008.5 - 0.0
27/07:30pm 30.2 32.7 20.2 55 6.7 ESE 7 9 4 5 1008.1 - 0.0
27/07:00pm 31.4 33.1 19.4 49 7.9 E 9 13 5 7 1007.7 - 0.0
27/06:30pm 32.7 33.4 18.8 43 9.1 ESE 13 19 7 10 1007.3 - 0.0
27/06:00pm 33.2 34.1 20.0 45 8.8 E 15 24 8 13 1007.2 1005.5 0.0
27/05:30pm 32.3 32.4 19.2 46 8.6 ESE 17 22 9 12 1007.1 - 0.0
27/05:00pm 32.7 32.4 19.2 44 8.9 E 19 26 10 14 1007.0 - 0.0
27/04:30pm 34.2 34.4 19.4 41 9.8 ESE 17 28 9 15 1007.0 - 0.0
27/04:00pm 33.9 34.9 20.3 45 9.1 ESE 15 20 8 11 1007.4 - 0.0
27/03:30pm 34.1 34.4 20.5 45 9.2 ESE 19 32 10 17 1007.6 - 0.0
27/03:00pm 33.3 33.8 20.1 45 8.9 ESE 17 24 9 13 1007.7 1006.0 0.0
27/02:30pm 33.7 34.4 19.7 43 9.3 ESE 15 22 8 12 1007.9 - 0.0
27/02:00pm 32.9 32.9 19.0 43 9.2 ESE 17 24 9 13 1008.2 - 0.0
27/01:30pm 33.8 34.0 20.2 44 9.1 E 19 24 10 13 1008.7 - 0.0
27/01:00pm 33.1 35.1 21.6 51 7.9 ESE 13 20 7 11 1009.1 - 0.0
27/12:30pm 32.5 33.2 20.4 49 8.1 ESE 17 26 9 14 1009.5 - 0.0
27/12:00pm 32.0 34.2 20.3 50 7.8 E 9 17 5 9 1010.0 1008.3 0.0
27/11:30am 32.2 34.6 22.3 56 6.8 ENE 13 20 7 11 1010.4 - 0.0
27/11:00am 31.5 34.2 22.2 57 6.4 E 11 17 6 9 1010.7 - 0.0
27/10:30am 30.7 33.3 22.0 59 5.9 NE 11 17 6 9 1010.9 - 0.0
27/10:00am 29.9 31.9 21.6 61 5.6 NE 13 20 7 11 1011.1 - 0.0
27/09:30am 29.7 32.7 22.7 66 4.8 ENE 11 15 6 8 1011.0 - 0.0
27/09:00am 28.2 31.1 22.4 71 4.0 NE 11 15 6 8 1010.8 1009.1 1.0
27/08:30am 27.5 30.0 22.4 73 3.5 NE 13 19 7 10 1010.7 - 1.0
27/08:00am 26.7 30.3 22.3 77 3.0 NE 7 11 4 6 1010.3 - 1.0
27/07:30am 25.3 30.1 22.8 86 1.7 ENE 2 7 1 4 1010.0 - 1.0
27/07:00am 24.3 28.4 22.9 92 1.0 ENE 6 7 3 4 1009.7 - 1.0
27/06:30am 24.1 28.1 22.7 92 0.9 NE 6 7 3 4 1009.7 - 1.0
27/06:00am 24.4 28.4 22.8 91 1.1 NNE 6 7 3 4 1009.2 1007.6 1.0
27/05:30am 24.6 28.6 22.8 90 1.2 N 6 7 3 4 1008.9 - 1.0
27/05:00am 24.7 29.0 23.3 92 1.0 N 6 7 3 4 1008.7 - 1.0
27/04:30am 25.0 29.4 23.4 91 1.1 N 6 6 3 3 1008.7 - 1.0
27/04:00am 25.0 29.1 23.2 90 1.2 N 7 9 4 5 1008.7 - 1.0
27/03:30am 25.1 30.7 23.5 91 1.1 CALM 0 0 0 0 1009.1 - 1.0
27/03:00am 25.4 29.6 23.5 89 1.3 N 7 9 4 5 1009.3 1007.7 1.0
27/02:30am 25.4 28.4 22.7 85 1.8 ESE 11 17 6 9 1009.9 - 1.0
27/02:00am 25.2 28.2 22.7 86 1.7 ENE 11 19 6 10 1009.8 - 1.0
27/01:30am 26.9 28.7 21.9 74 3.4 E 15 24 8 13 1010.1 - 0.0
27/01:00am 26.6 30.1 22.2 77 3.0 E 7 11 4 6 1009.9 - 0.0
27/12:30am 26.4 30.2 23.5 84 2.0 ENE 9 11 5 6 1009.7 - 0.0
27/12:00am 26.6 30.7 23.3 82 2.3 ENE 7 9 4 5 1009.9 1008.2 0.0
 
Date/Time
CST
Temp
°C
App
Temp
°C
Dew
Point
°C
Rel
Hum
%
Delta-T
°C
Wind Press
QNH
hPa
Press
MSL
hPa
Rain since
9am
mm
Dir  Spd
km/h
Gust
km/h
Spd
kts
Gust
kts
26/11:30pm 27.0 33.0 24.3 85 1.9 CALM 0 0 0 0 1009.8 - 0.0
26/11:00pm 27.2 33.2 24.3 84 2.0 CALM 0 0 0 0 1009.8 - 0.0
26/10:30pm 26.8 32.4 24.3 86 1.7 NNE 2 7 1 4 1009.5 - 0.0
26/10:00pm 26.9 33.0 24.4 86 1.7 CALM 0 0 0 0 1009.4 - 0.0
26/09:30pm 27.5 32.8 23.1 77 3.0 CALM 0 0 0 0 1009.2 - 0.0
26/09:00pm 27.7 31.2 22.2 72 3.7 NE 7 9 4 5 1008.8 1007.2 0.0
26/08:30pm 28.0 31.5 22.2 70 3.9 ENE 7 11 4 6 1008.4 - 0.0
26/08:00pm 28.5 32.6 22.3 69 4.2 ENE 4 6 2 3 1007.5 - 0.0
26/07:30pm 29.3 32.5 21.3 62 5.4 ENE 6 7 3 4 1007.3 - 0.0
26/07:00pm 30.4 32.5 19.4 51 7.2 ENE 7 11 4 6 1006.9 - 0.0
26/06:30pm 31.6 32.1 19.2 47 8.2 ENE 15 24 8 13 1006.5 - 0.0
26/06:00pm 33.4 35.1 20.2 46 8.9 SE 11 17 6 9 1006.2 1004.5 0.0
26/05:30pm 34.0 36.5 21.1 47 8.8 E 9 15 5 8 1005.9 - 0.0
26/05:00pm 33.4 36.4 21.9 51 7.9 SSE 9 13 5 7 1006.0 - 0.0
26/04:30pm 32.3 32.8 20.9 51 7.7 SSE 19 32 10 17 1006.3 - 0.0
26/04:00pm 34.7 37.0 21.4 46 9.1 SSE 11 19 6 10 1006.4 - 0.0
26/03:30pm 34.4 37.5 21.4 46 8.9 ESE 7 19 4 10 1006.6 - 0.0
26/03:00pm 34.4 37.1 21.4 46 8.9 SSE 9 17 5 9 1006.9 1005.2 0.0
26/02:30pm 33.9 36.2 22.0 49 8.2 S 13 17 7 9 1007.2 - 0.0
26/02:00pm 33.1 36.2 22.2 52 7.5 S 9 15 5 8 1007.6 - 0.0
26/01:30pm 32.1 34.8 22.8 58 6.4 S 13 20 7 11 1007.9 - 0.0
26/01:00pm 31.9 34.9 22.6 58 6.4 S 11 19 6 10 1008.4 - 0.0
26/12:30pm 31.4 33.9 23.2 61 5.7 S 15 20 8 11 1008.8 - 0.0
26/12:00pm 30.9 33.6 22.2 59 6.0 S 11 17 6 9 1009.2 1007.6 0.0
26/11:30am 30.7 33.5 22.3 61 5.8 SSW 11 20 6 11 1009.5 - 0.0
26/11:00am 29.9 33.1 22.3 63 5.2 SSW 9 17 5 9 1009.8 - 0.0
26/10:30am 29.2 31.9 22.2 66 4.8 SW 11 17 6 9 1010.0 - 0.0
26/10:00am 28.0 31.4 22.7 73 3.6 SW 9 15 5 8 1010.3 - 0.0
26/09:30am 26.7 29.5 22.3 77 3.0 SW 11 15 6 8 1010.4 - 0.0
26/09:00am 26.3 29.4 22.8 81 2.4 SW 11 17 6 9 1010.2 1008.5 1.2
26/08:54am 26.0 29.1 22.9 83 2.1 SW 11 17 6 9 1010.1 - 1.2
26/08:30am 24.4 27.5 22.8 91 1.1 WSW 11 13 6 7 1010.2 - 1.2
26/08:00am 23.5 26.8 22.5 94 0.7 SW 9 13 5 7 1009.8 - 1.2
26/07:30am 23.3 26.6 22.6 96 0.5 WSW 9 13 5 7 1009.4 - 1.2
26/07:00am 23.2 26.5 22.5 96 0.5 SW 9 13 5 7 1009.7 - 1.2
26/06:55am 23.2 26.9 22.5 96 0.5 SW 7 11 4 6 1009.7 - 1.2
26/06:30am 23.3 27.0 22.5 95 0.5 SW 7 9 4 5 1009.5 - 1.2
26/06:00am 23.6 27.6 22.8 95 0.5 SW 6 9 3 5 1009.7 1008.0 1.2
26/05:30am 23.6 26.9 22.6 94 0.7 W 9 13 5 7 1009.2 - 1.2
26/05:00am 23.6 28.5 22.4 93 0.8 CALM 0 6 0 3 1009.2 - 1.2
26/04:30am 23.5 27.0 22.1 92 0.9 NW 7 11 4 6 1009.0 - 1.2
26/04:00am 23.6 26.6 22.0 91 1.1 NNW 9 13 5 7 1009.0 - 1.2
26/03:30am 23.9 26.3 21.6 87 1.5 N 11 13 6 7 1009.3 - 1.2
26/03:00am 24.3 26.5 21.8 86 1.7 N 13 19 7 10 1009.4 1007.8 1.2
26/02:30am 24.4 27.4 22.7 90 1.2 NNE 11 15 6 8 1009.7 - 1.2
26/02:00am 24.6 30.1 23.4 93 0.8 CALM 0 0 0 0 1010.2 - 1.2
26/01:30am 24.6 28.8 23.2 92 1.0 S 6 7 3 4 1010.3 - 1.2
26/01:00am 24.5 29.7 22.9 91 1.1 CALM 0 0 0 0 1010.6 - 1.2
26/12:30am 24.6 29.9 23.0 91 1.1 CALM 0 0 0 0 1010.8 - 1.2
26/12:00am 24.9 28.8 22.6 87 1.6 SW 6 9 3 5 1010.8 1009.1 1.2
 
Date/Time
CST
Temp
°C
App
Temp
°C
Dew
Point
°C
Rel
Hum
%
Delta-T
°C
Wind Press
QNH
hPa
Press
MSL
hPa
Rain since
9am
mm
Dir  Spd
km/h
Gust
km/h
Spd
kts
Gust
kts
25/11:30pm 25.2 29.0 22.7 86 1.7 E 7 15 4 8 1011.5 - 1.2
25/11:00pm 25.0 27.3 22.7 87 1.6 NE 15 28 8 15 1011.3 - 1.2
25/10:30pm 25.0 29.9 22.3 85 1.8 CALM 0 0 0 0 1010.9 - 1.2
25/10:00pm 25.0 30.1 22.7 87 1.6 CALM 0 0 0 0 1010.7 - 1.2
25/09:30pm 25.1 28.9 22.4 85 1.8 SW 6 9 3 5 1010.6 - 1.2
25/09:00pm 25.2 29.2 22.7 86 1.7 SW 6 9 3 5 1010.1 1008.4 1.2
25/08:30pm 25.4 28.6 22.3 83 2.1 S 9 13 5 7 1009.8 - 1.2
25/08:00pm 25.7 29.9 22.4 82 2.2 SSW 4 9 2 5 1009.8 - 1.2
25/07:30pm 25.7 28.7 22.0 80 2.5 S 9 11 5 6 1009.8 - 1.2
25/07:00pm 26.5 30.2 22.6 79 2.7 S 7 11 4 6 1009.1 - 1.2
25/06:30pm 26.7 29.2 21.7 74 3.4 S 11 17 6 9 1008.2 - 1.2
25/06:00pm 27.0 27.5 20.8 69 4.1 S 19 24 10 13 1008.3 1006.7 1.2
25/05:30pm 29.7 28.7 20.5 57 6.1 S 26 35 14 19 1007.6 - 1.2
25/05:00pm 32.9 36.0 21.1 50 8.0 N 6 11 3 6 1007.3 - 1.2
25/04:30pm 32.6 35.8 22.4 55 7.0 ENE 9 17 5 9 1007.8 - 1.2
25/04:00pm 32.5 35.4 21.0 50 7.8 ENE 7 15 4 8 1008.1 - 1.2
25/03:30pm 32.1 34.1 21.6 53 7.2 NE 13 20 7 11 1008.4 - 1.2
25/03:00pm 33.4 36.7 21.9 51 7.9 E 7 13 4 7 1008.7 1007.1 1.2
25/02:30pm 31.8 34.2 21.6 54 6.9 E 11 19 6 10 1009.0 - 1.2
25/02:00pm 32.1 36.0 23.6 60 5.9 N 9 13 5 7 1009.5 - 1.2
25/01:30pm 31.2 34.7 23.6 64 5.3 ENE 11 15 6 8 1010.3 - 1.2
25/01:00pm 30.5 34.5 23.7 67 4.7 E 9 17 5 9 1010.8 - 1.2

Other Formats:

Comma delimited format used in spreadsheet applications
http://www.bom.gov.au/fwo/IDD60801/IDD60801.94225.axf

JavaScript Object Notation format (JSON) in row-major order
http://www.bom.gov.au/fwo/IDD60801/IDD60801.94225.json